.
WxDataArchive / Data Records for 2014-02-17
2014-02-16 February 2014 2014-02-18

Data Records for Monday, 17 February 2014

Time	Temp	Chill	HIndex	Humid	Dewpt	 Wind 	HiWind	WindDir	Rain 	Barom 
-----	----	-----	------	-----	-----	------	------	-------	-----	----- 
00:00	14.6	14.6	14.6	77	8.7	1	2	90	0.00	30.333 
00:05	14.3	14.3	14.3	78	8.7	1	3	90	0.00	30.333 
00:10	14.1	14.1	14.1	78	8.5	1	2	90	0.00	30.333 
00:15	14.0	14.0	14.0	78	8.4	0	2	90	0.00	30.332 
00:20	13.6	13.6	13.6	78	8.0	0	0	---	0.00	30.332 
00:25	13.5	13.5	13.5	78	7.9	0	0	---	0.00	30.332 
00:30	13.1	13.1	13.1	78	7.6	0	0	---	0.00	30.344 
00:35	12.6	12.6	12.6	79	7.3	0	1	90	0.00	30.344 
00:40	12.4	12.4	12.4	79	7.2	0	2	90	0.00	30.344 
00:45	12.3	12.3	12.3	80	7.3	0	3	90	0.00	30.336 
00:50	12.1	12.1	12.1	80	7.1	0	1	90	0.00	30.336 
00:55	12.1	12.1	12.1	80	7.1	0	2	90	0.00	30.336 
01:00	11.7	11.7	11.7	80	6.7	0	1	90	0.00	30.337 
01:05	11.6	11.6	11.6	80	6.6	0	0	---	0.00	30.337 
01:10	11.2	11.2	11.2	81	6.5	0	3	90	0.00	30.337 
01:15	11.2	11.2	11.2	81	6.5	0	1	90	0.00	30.340 
01:20	11.2	11.2	11.2	81	6.5	0	2	90	0.00	30.340 
01:25	11.2	11.2	11.2	81	6.5	0	1	90	0.00	30.340 
01:30	11.1	11.1	11.1	81	6.4	0	2	90	0.00	30.348 
01:35	10.9	10.9	10.9	81	6.2	0	1	90	0.00	30.348 
01:40	10.7	10.7	10.7	81	6.0	0	1	90	0.00	30.348 
01:45	10.7	10.7	10.7	81	6.0	0	0	---	0.00	30.359 
01:50	10.5	10.5	10.5	81	5.8	0	0	---	0.00	30.359 
01:55	10.2	10.2	10.2	81	5.6	0	0	---	0.00	30.359 
02:00	10.0	10.0	10.0	81	5.4	0	1	90	0.00	30.365 
02:05	9.9	9.9	9.9	82	5.5	0	1	90	0.00	30.365 
02:10	10.0	10.0	10.0	82	5.6	0	1	90	0.00	30.365 
02:15	10.4	10.4	10.4	83	6.3	1	3	90	0.00	30.363 
02:20	10.7	10.7	10.7	83	6.6	0	2	90	0.00	30.363 
02:25	10.9	10.9	10.9	83	6.8	1	2	90	0.00	30.363 
02:30	10.9	10.9	10.9	83	6.8	0	2	90	0.00	30.366 
02:35	10.9	10.9	10.9	83	6.8	0	2	90	0.00	30.366 
02:40	10.9	10.9	10.9	83	6.8	1	2	90	0.00	30.366 
02:45	10.9	10.9	10.9	84	7.0	0	2	90	0.00	30.366 
02:50	10.7	10.7	10.7	84	6.8	0	2	90	0.00	30.366 
02:55	10.5	10.5	10.5	84	6.6	0	2	90	0.00	30.366 
03:00	10.4	10.4	10.4	84	6.5	1	2	90	0.00	30.363 
03:05	10.2	10.2	10.2	84	6.3	1	2	90	0.00	30.363 
03:10	10.0	10.0	10.0	84	6.2	0	2	90	0.00	30.363 
03:15	9.9	9.9	9.9	84	6.1	1	3	90	0.00	30.356 
03:20	9.9	9.9	9.9	84	6.1	1	3	90	0.00	30.356 
03:25	9.7	9.7	9.7	84	5.9	1	3	90	0.00	30.356 
03:30	9.5	9.5	9.5	84	5.7	1	4	90	0.00	30.350 
03:35	9.5	9.5	9.5	85	5.9	1	2	90	0.00	30.350 
03:40	9.3	9.3	9.3	85	5.7	0	2	90	0.00	30.350 
03:45	9.2	9.2	9.2	85	5.6	0	2	90	0.00	30.347 
03:50	9.2	9.2	9.2	85	5.6	0	2	90	0.00	30.347 
03:55	9.2	9.2	9.2	85	5.6	1	3	90	0.00	30.347 
04:00	9.2	9.2	9.2	85	5.6	1	3	90	0.00	30.341 
04:05	9.2	9.2	9.2	85	5.6	0	1	90	0.00	30.341 
04:10	9.2	9.2	9.2	85	5.6	0	2	90	0.00	30.341 
04:15	9.2	9.2	9.2	85	5.6	1	3	90	0.00	30.339 
04:20	9.3	9.3	9.3	85	5.7	1	3	90	0.00	30.339 
04:25	9.2	9.2	9.2	85	5.6	1	2	90	0.00	30.339 
04:30	9.2	9.2	9.2	85	5.6	1	2	90	0.00	30.334 
04:35	9.0	9.0	9.0	85	5.4	1	2	90	0.00	30.334 
04:40	9.0	9.0	9.0	85	5.4	1	2	90	0.00	30.334 
04:45	8.8	8.8	8.8	84	5.0	0	2	90	0.00	30.343 
04:50	8.6	8.6	8.6	84	4.8	0	2	90	0.00	30.343 
04:55	8.6	8.6	8.6	84	4.8	1	3	90	0.00	30.343 
05:00	8.6	8.6	8.6	84	4.8	1	3	90	0.00	30.343 
05:05	8.6	8.6	8.6	84	4.8	0	2	90	0.00	30.343 
05:10	8.6	8.6	8.6	84	4.8	1	3	90	0.00	30.343 
05:15	8.8	8.8	8.8	84	5.0	1	4	90	0.00	30.344 
05:20	9.0	9.0	9.0	84	5.2	1	4	90	0.00	30.344 
05:25	9.3	9.3	9.3	84	5.5	1	2	90	0.00	30.344 
05:30	9.5	9.5	9.5	84	5.7	1	3	90	0.00	30.350 
05:35	9.5	9.5	9.5	84	5.7	2	4	90	0.00	30.350 
05:40	9.7	9.7	9.7	84	5.9	1	4	90	0.00	30.350 
05:45	9.9	9.9	9.9	83	5.8	1	3	90	0.00	30.339 
05:50	9.9	9.9	9.9	83	5.8	2	4	90	0.00	30.339 
05:55	10.0	10.0	10.0	83	5.9	2	4	90	0.00	30.339 
06:00	10.2	10.2	10.2	83	6.1	3	6	90	0.00	30.330 
06:05	10.2	10.2	10.2	82	5.8	3	6	90	0.00	30.330 
06:10	10.4	10.4	10.4	82	6.0	3	6	90	0.00	30.330 
06:15	10.4	10.4	10.4	81	5.7	2	5	90	0.00	30.329 
06:20	10.4	10.4	10.4	81	5.7	3	5	68	0.00	30.329 
06:25	10.4	10.4	10.4	81	5.7	3	6	90	0.00	30.329 
06:30	10.4	10.4	10.4	81	5.7	2	5	90	0.00	30.335 
06:35	10.5	10.5	10.5	81	5.8	2	6	90	0.00	30.335 
06:40	10.7	3.5	10.7	80	5.8	4	7	90	0.00	30.335 
06:45	10.7	10.7	10.7	80	5.8	2	7	90	0.00	30.323 
06:50	10.7	10.7	10.7	80	5.8	2	5	68	0.00	30.323 
06:55	10.7	10.7	10.7	80	5.8	2	4	90	0.00	30.323 
07:00	10.7	3.5	10.7	80	5.8	4	9	90	0.00	30.309 
07:05	10.7	10.7	10.7	80	5.8	3	6	90	0.00	30.309 
07:10	10.7	10.7	10.7	80	5.8	3	7	90	0.00	30.309 
07:15	10.7	10.7	10.7	80	5.8	3	11	90	0.00	30.306 
07:20	10.7	10.7	10.7	80	5.8	3	9	90	0.00	30.306 
07:25	10.9	10.9	10.9	80	6.0	3	9	90	0.00	30.306 
07:30	10.9	3.7	10.9	80	6.0	4	7	90	0.00	30.296 
07:35	10.9	3.7	10.9	80	6.0	4	7	90	0.00	30.296 
07:40	10.9	10.9	10.9	80	6.0	3	6	90	0.00	30.296 
07:45	11.1	11.1	11.1	80	6.2	3	7	90	0.00	30.300 
07:50	11.2	11.2	11.2	80	6.3	3	6	90	0.00	30.300 
07:55	11.2	11.2	11.2	80	6.3	3	5	90	0.00	30.300 
08:00	11.2	4.0	11.2	80	6.3	4	8	90	0.00	30.305 
08:05	11.4	11.4	11.4	80	6.5	3	7	90	0.00	30.305 
08:10	11.4	11.4	11.4	80	6.5	3	7	90	0.00	30.305 
08:15	11.4	11.4	11.4	80	6.5	3	7	90	0.00	30.311 
08:20	11.6	11.6	11.6	81	6.9	3	6	90	0.00	30.311 
08:25	11.7	11.7	11.7	81	7.0	3	6	90	0.00	30.311 
08:30	11.9	11.9	11.9	81	7.2	2	5	90	0.00	30.314 
08:35	11.9	11.9	11.9	81	7.2	3	7	90	0.00	30.314 
08:40	12.1	12.1	12.1	81	7.4	3	6	112	0.00	30.314 
08:45	12.3	12.3	12.3	81	7.6	3	6	90	0.00	30.317 
08:50	12.3	12.3	12.3	81	7.6	3	6	90	0.00	30.317 
08:55	12.4	12.4	12.4	81	7.7	2	4	90	0.00	30.317 
09:00	12.6	12.6	12.6	81	7.9	3	6	90	0.00	30.311 
09:05	12.8	12.8	12.8	81	8.1	2	6	90	0.00	30.311 
09:10	12.9	12.9	12.9	81	8.2	3	6	90	0.00	30.311 
09:15	12.9	12.9	12.9	81	8.2	3	6	90	0.00	30.304 
09:20	13.1	13.1	13.1	81	8.4	3	7	90	0.00	30.304 
09:25	13.5	6.7	13.5	81	8.8	4	8	90	0.00	30.304 
09:30	13.6	13.6	13.6	81	8.9	3	6	112	0.00	30.292 
09:35	14.0	7.3	14.0	80	9.0	4	7	90	0.00	30.292 
09:40	14.1	7.4	14.1	80	9.1	4	9	90	0.00	30.292 
09:45	14.1	7.4	14.1	80	9.1	4	10	90	0.00	30.276 
09:50	14.4	14.4	14.4	80	9.4	3	6	90	0.00	30.276 
09:55	14.6	5.5	14.6	79	9.3	6	10	90	0.00	30.276 
10:00	14.6	8.0	14.6	79	9.3	4	9	112	0.00	30.260 
10:05	14.9	8.3	14.9	79	9.6	4	6	112	0.00	30.260 
10:10	15.2	8.7	15.2	79	9.9	4	9	90	0.00	30.260 
10:15	15.4	7.6	15.4	78	9.8	5	10	90	0.00	30.255 
10:20	15.7	9.2	15.7	78	10.1	4	7	90	0.00	30.255 
10:25	16.1	8.4	16.1	78	10.5	5	10	90	0.00	30.255 
10:30	16.1	8.4	16.1	77	10.2	5	10	90	0.00	30.240 
10:35	16.2	8.5	16.2	77	10.3	5	11	90	0.00	30.240 
10:40	16.4	8.8	16.4	77	10.5	5	9	112	0.00	30.240 
10:45	16.5	7.8	16.5	76	10.3	6	14	90	0.00	30.221 
10:50	16.7	8.0	16.7	76	10.5	6	13	90	0.00	30.221 
10:55	16.9	9.3	16.9	76	10.7	5	12	112	0.00	30.221 
11:00	16.9	8.2	16.9	76	10.7	6	11	90	0.00	30.211 
11:05	16.9	7.3	16.9	75	10.4	7	13	112	0.00	30.211 
11:10	16.9	9.3	16.9	75	10.4	5	10	112	0.00	30.211 
11:15	17.0	17.0	17.0	75	10.5	3	11	112	0.00	30.208 
11:20	17.2	9.7	17.2	75	10.7	5	10	112	0.00	30.208 
11:25	17.2	8.6	17.2	75	10.7	6	12	90	0.00	30.208 
11:30	17.3	9.8	17.3	75	10.8	5	10	112	0.00	30.182 
11:35	17.5	10.0	17.5	74	10.7	5	11	90	0.00	30.182 
11:40	17.7	10.3	17.7	74	10.8	5	12	90	0.00	30.182 
11:45	17.8	10.4	17.8	74	10.9	5	11	90	0.00	30.181 
11:50	18.1	12.0	18.1	74	11.2	4	9	90	0.00	30.181 
11:55	18.4	18.4	18.4	75	11.8	3	7	112	0.00	30.181 
12:00	18.6	10.3	18.6	74	11.7	6	10	112	0.00	30.163 
12:05	18.6	11.3	18.6	74	11.7	5	10	90	0.00	30.163 
12:10	18.8	12.8	18.8	75	12.2	4	9	90	0.00	30.163 
12:15	18.9	11.7	18.9	75	12.3	5	11	112	0.00	30.151 
12:20	19.2	13.3	19.2	74	12.3	4	7	90	0.00	30.151 
12:25	19.5	12.4	19.5	74	12.6	5	10	90	0.00	30.151 
12:30	19.9	14.1	19.9	74	13.0	4	11	90	0.00	30.135 
12:35	20.2	14.4	20.2	73	13.0	4	7	90	0.00	30.135 
12:40	20.5	13.6	20.5	72	12.9	5	12	90	0.00	30.135 
12:45	20.5	10.8	20.5	72	12.9	8	15	90	0.00	30.117 
12:50	20.5	11.6	20.5	71	12.6	7	13	112	0.00	30.117 
12:55	20.6	14.9	20.6	71	12.7	4	10	90	0.00	30.117 
13:00	20.8	15.1	20.8	71	12.9	4	9	90	0.00	30.114 
13:05	21.0	15.4	21.0	72	13.4	4	7	90	0.00	30.114 
13:10	21.0	13.1	21.0	71	13.1	6	11	90	0.00	30.114 
13:15	20.8	12.9	20.8	72	13.2	6	14	90	0.00	30.088 
13:20	20.6	20.6	20.6	72	13.0	3	11	90	0.00	30.088 
13:25	20.5	11.6	20.5	72	12.9	7	12	90	0.00	30.088 
13:30	20.3	12.3	20.3	73	13.1	6	11	90	0.00	30.071 
13:35	20.3	13.3	20.3	73	13.1	5	11	90	0.00	30.071 
13:40	20.3	12.3	20.3	73	13.1	6	14	90	0.00	30.071 
13:45	20.2	10.5	20.2	73	13.0	8	17	90	0.00	30.027 
13:50	20.0	11.0	20.0	73	12.8	7	16	90	0.00	30.027 
13:55	20.0	11.0	20.0	73	12.8	7	19	90	0.00	30.027 
14:00	20.0	10.2	20.0	73	12.8	8	17	90	0.00	30.009 
14:05	20.0	10.2	20.0	73	12.8	8	17	90	0.00	30.009 
14:10	20.2	11.3	20.2	73	13.0	7	17	112	0.00	30.009 
14:15	20.3	10.6	20.3	73	13.1	8	19	90	0.00	29.994 
14:20	20.5	10.8	20.5	73	13.2	8	15	112	0.00	29.994 
14:25	20.6	11.8	20.6	74	13.7	7	13	90	0.00	29.994 
14:30	20.6	11.8	20.6	73	13.3	7	15	90	0.00	29.959 
14:35	20.8	11.2	20.8	73	13.5	8	16	90	0.00	29.959 
14:40	20.8	9.8	20.8	73	13.5	10	17	90	0.00	29.959 
14:45	21.0	11.5	21.0	74	14.0	8	14	90	0.00	29.942 
14:50	21.3	13.5	21.3	75	14.6	6	13	90	0.00	29.942 
14:55	21.4	13.6	21.4	73	14.1	6	14	90	0.00	29.942 
15:00	21.6	13.8	21.6	73	14.3	6	12	90	0.00	29.931 
15:05	21.6	13.8	21.6	73	14.3	6	12	112	0.00	29.931 
15:10	21.6	13.0	21.6	73	14.3	7	12	90	0.00	29.931 
15:15	21.6	12.2	21.6	73	14.3	8	16	90	0.00	29.910 
15:20	21.6	13.0	21.6	73	14.3	7	14	90	0.00	29.910 
15:25	21.8	15.1	21.8	74	14.8	5	11	90	0.00	29.910 
15:30	21.9	13.3	21.9	73	14.6	7	13	90	0.00	29.913 
15:35	21.9	13.3	21.9	73	14.6	7	15	90	0.00	29.913 
15:40	22.1	14.4	22.1	73	14.8	6	13	90	0.00	29.913 
15:45	22.2	15.6	22.2	73	14.9	5	12	90	0.00	29.901 
15:50	22.4	22.4	22.4	73	15.1	3	9	90	0.00	29.901 
15:55	22.4	15.8	22.4	73	15.1	5	11	90	0.00	29.901 
16:00	22.4	14.8	22.4	73	15.1	6	12	112	0.00	29.884 
16:05	22.4	14.8	22.4	73	15.1	6	11	112	0.00	29.884 
16:10	22.5	15.9	22.5	73	15.2	5	13	90	0.00	29.884 
16:15	22.7	15.2	22.7	73	15.4	6	14	90	0.00	29.851 
16:20	22.5	14.9	22.5	74	15.5	6	14	90	0.00	29.851 
16:25	22.4	14.8	22.4	75	15.7	6	11	90	0.00	29.851 
16:30	22.2	14.6	22.2	75	15.5	6	11	90	0.00	29.820 
16:35	22.1	13.6	22.1	76	15.7	7	14	90	0.00	29.820 
16:40	21.9	14.2	21.9	80	16.7	6	11	90	0.00	29.820 
16:45	21.6	13.8	21.6	83	17.3	6	12	90	0.00	29.804 
16:50	21.4	15.8	21.4	84	17.3	4	10	90	0.00	29.804 
16:55	21.3	14.5	21.3	86	17.8	5	9	90	0.00	29.804 
17:00	21.3	15.7	21.3	87	18.0	4	9	90	0.00	29.805 
17:05	21.3	14.5	21.3	88	18.3	5	11	90	0.00	29.805 
17:10	21.1	14.3	21.1	88	18.1	5	9	90	0.00	29.805 
17:15	21.1	13.2	21.1	88	18.1	6	12	90	0.00	29.777 
17:20	21.3	13.5	21.3	89	18.6	6	12	90	0.00	29.777 
17:25	21.3	12.6	21.3	89	18.6	7	12	112	0.00	29.777 
17:30	21.4	14.6	21.4	89	18.7	5	11	112	0.00	29.770 
17:35	21.4	15.8	21.4	90	18.9	4	8	90	0.00	29.770 
17:40	21.6	14.9	21.6	90	19.1	5	10	112	0.00	29.770 
17:45	21.6	14.9	21.6	90	19.1	5	12	90	0.00	29.769 
17:50	21.8	15.1	21.8	90	19.3	5	10	90	0.00	29.769 
17:55	21.8	21.8	21.8	90	19.3	2	7	112	0.00	29.769 
18:00	21.9	16.4	21.9	90	19.4	4	8	90	0.00	29.756 
18:05	21.9	15.2	21.9	90	19.4	5	12	112	0.00	29.756 
18:10	22.1	16.6	22.1	90	19.6	4	9	90	0.00	29.756 
18:15	22.2	15.6	22.2	91	20.0	5	9	90	0.00	29.748 
18:20	22.2	15.6	22.2	91	20.0	5	11	90	0.00	29.748 
18:25	22.4	15.8	22.4	91	20.2	5	10	112	0.00	29.748 
18:30	22.4	22.4	22.4	91	20.2	3	7	90	0.00	29.737 
18:35	22.5	22.5	22.5	91	20.3	3	10	90	0.00	29.737 
18:40	22.7	22.7	22.7	91	20.5	3	5	90	0.00	29.737 
18:45	22.7	17.3	22.7	91	20.5	4	6	90	0.00	29.736 
18:50	22.9	22.9	22.9	91	20.7	2	5	90	0.00	29.736 
18:55	22.9	22.9	22.9	91	20.7	1	3	90	0.00	29.736 
19:00	23.0	23.0	23.0	91	20.8	2	5	90	0.00	29.734 
19:05	23.0	23.0	23.0	91	20.8	0	1	90	0.00	29.734 
19:10	23.2	23.2	23.2	91	21.0	2	5	112	0.00	29.734 
19:15	23.2	23.2	23.2	91	21.0	0	2	112	0.00	29.736 
19:20	23.2	23.2	23.2	91	21.0	3	7	112	0.00	29.736 
19:25	23.2	23.2	23.2	91	21.0	1	3	90	0.00	29.736 
19:30	23.3	23.3	23.3	91	21.1	2	4	90	0.00	29.720 
19:35	23.5	23.5	23.5	92	21.5	1	4	90	0.00	29.720 
19:40	23.5	23.5	23.5	92	21.5	0	1	90	0.00	29.720 
19:45	23.6	23.6	23.6	92	21.6	0	1	90	0.00	29.719 
19:50	23.6	23.6	23.6	92	21.6	0	1	90	0.00	29.719 
19:55	23.6	23.6	23.6	92	21.6	0	0	---	0.00	29.719 
20:00	23.6	23.6	23.6	92	21.6	0	1	90	0.00	29.712 
20:05	23.6	23.6	23.6	92	21.6	0	0	---	0.00	29.712 
20:10	23.8	23.8	23.8	92	21.8	0	0	---	0.00	29.712 
20:15	23.8	23.8	23.8	92	21.8	0	0	---	0.00	29.693 
20:20	23.8	23.8	23.8	92	21.8	0	0	---	0.00	29.693 
20:25	23.8	23.8	23.8	92	21.8	0	0	---	0.00	29.693 
20:30	23.8	23.8	23.8	92	21.8	0	0	---	0.00	29.692 
20:35	23.8	23.8	23.8	92	21.8	0	0	---	0.00	29.692 
20:40	23.8	23.8	23.8	92	21.8	0	0	---	0.00	29.692 
20:45	23.9	23.9	23.9	92	21.9	0	0	---	0.00	29.689 
20:50	23.9	23.9	23.9	92	21.9	0	0	---	0.00	29.689 
20:55	23.9	23.9	23.9	92	21.9	0	0	---	0.00	29.689 
21:00	24.1	24.1	24.1	92	22.1	0	0	---	0.00	29.691 
21:05	24.1	24.1	24.1	92	22.1	0	1	90	0.00	29.691 
21:10	24.2	24.2	24.2	92	22.2	0	2	90	0.00	29.691 
21:15	24.5	24.5	24.5	92	22.5	0	3	90	0.00	29.693 
21:20	25.0	25.0	25.0	93	23.3	1	5	248	0.00	29.693 
21:25	25.6	25.6	25.6	93	23.9	1	4	248	0.00	29.693 
21:30	26.0	26.0	26.0	93	24.3	2	7	248	0.00	29.698 
21:35	26.4	26.4	26.4	93	24.7	2	8	248	0.00	29.698 
21:40	26.7	26.7	26.7	93	25.0	1	6	225	0.00	29.698 
21:45	27.0	27.0	27.0	93	25.3	2	6	248	0.00	29.696 
21:50	27.3	27.3	27.3	93	25.5	2	5	248	0.00	29.696 
21:55	27.6	27.6	27.6	93	25.8	2	7	248	0.00	29.696 
22:00	27.9	23.3	27.9	94	26.4	4	11	248	0.00	29.696 
22:05	28.1	28.1	28.1	94	26.6	3	7	248	0.00	29.696 
22:10	28.2	28.2	28.2	94	26.7	2	6	248	0.00	29.696 
22:15	28.4	28.4	28.4	94	26.9	2	5	248	0.00	29.696 
22:20	28.4	28.4	28.4	94	26.9	3	6	248	0.00	29.696 
22:25	28.5	28.5	28.5	94	27.0	2	6	248	0.00	29.696 
22:30	28.5	28.5	28.5	94	27.0	3	6	248	0.00	29.693 
22:35	28.4	28.4	28.4	94	26.9	3	9	248	0.00	29.693 
22:40	28.4	22.8	28.4	93	26.6	5	12	270	0.00	29.693 
22:45	28.2	23.7	28.2	93	26.4	4	7	270	0.00	29.697 
22:50	28.2	28.2	28.2	93	26.4	3	7	270	0.00	29.697 
22:55	28.1	23.6	28.1	93	26.3	4	9	248	0.00	29.697 
23:00	28.1	23.6	28.1	93	26.3	4	11	248	0.00	29.706 
23:05	27.9	23.3	27.9	93	26.1	4	10	248	0.00	29.706 
23:10	27.9	23.3	27.9	93	26.1	4	10	248	0.00	29.706 
23:15	27.8	23.2	27.8	93	26.0	4	10	248	0.00	29.710 
23:20	27.8	23.2	27.8	93	26.0	4	9	270	0.00	29.710 
23:25	27.6	23.0	27.6	92	25.6	4	9	270	0.00	29.710 
23:30	27.5	22.9	27.5	92	25.5	4	9	270	0.00	29.721 
23:35	27.5	27.5	27.5	92	25.5	3	6	270	0.00	29.721 
23:40	27.5	27.5	27.5	92	25.5	3	6	248	0.00	29.721 
23:45	27.6	23.0	27.6	92	25.6	4	8	270	0.00	29.724 
23:50	27.6	27.6	27.6	92	25.6	3	9	248	0.00	29.724 
23:55	27.6	27.6	27.6	92	25.6	3	7	270	0.00	29.724 

CoCoRaHS
IN-AL-39
A2 Web Hosting
Creative Commons License
GoDaddy
search engine by freefind advanced

loaded 2018-11-16 23:18:07 • last modified 2010-11-18 10:43:29
Privacy PolicyDisclaimer
• wx.awcolley.com is powered by PmWiki v.2002016 •
• all content (unless otherwise noted) © 2018 A W Colley